logo
Rechercher aéroport 
image banner adimage banner adimage banner ad
image banner ad

RPLI - Laoag International Airport

Situé à Laoag City, Philippines

ICAO - RPLI, IATA - LAO

Données fournies par Airmate  

Information générale

Coordonnées: N18°10'34" E120°31'52"
Élévation : 24 feet MSL.
Variation magnétique : -3° East
Voir autres Aéroports à Ilocos Norte

Données opérationnelles

Special qualification required
Heure actuelle UTC:
Heure actuelle locale:
Météo
METAR: RPLI 152000Z VRB02KT 9999 FEW018 BKN290 26/26 Q1007 NOSIG RMK A2974
TAF: TAF RPLI 151700Z 1518/1618 19005KT 9999 FEW018 TEMPO 1603/1609 34005KT -SHRA FEW017CB SCT080
Voir NOTAMs / SUP AIP / TFR affectant cet aéroport [VIEW]
Fréquences de communication: [VIEW]

Pistes:

Identifiant RWYQFULongueur (ft)Largeur (ft)SurfaceLDA (ft)
019134148CONC9134
19185°9134148CONC9134

Coordonnées de l'aéroport

Adresse: Laoag City Philippines

Vue satellite de RPLI